sensor_id;sensor_type;location;lat;lon;timestamp;pressure;altitude;pressure_sealevel;temperature;humidity
54900;BME280;40801;41.924;25.562;2023-04-09T00:02:12;99925.44;;;8.62;68.42
54900;BME280;40801;41.924;25.562;2023-04-09T00:04:38;99930.34;;;8.55;68.58
54900;BME280;40801;41.924;25.562;2023-04-09T00:07:03;99925.59;;;8.42;69.40
54900;BME280;40801;41.924;25.562;2023-04-09T00:09:29;99925.56;;;8.47;69.00
54900;BME280;40801;41.924;25.562;2023-04-09T00:11:54;99932.00;;;8.46;69.05
54900;BME280;40801;41.924;25.562;2023-04-09T00:14:21;99933.63;;;8.47;69.01
54900;BME280;40801;41.924;25.562;2023-04-09T00:16:46;99928.81;;;8.39;69.10
54900;BME280;40801;41.924;25.562;2023-04-09T00:19:12;99928.03;;;8.33;69.29
54900;BME280;40801;41.924;25.562;2023-04-09T00:21:37;99934.44;;;8.37;69.41
54900;BME280;40801;41.924;25.562;2023-04-09T00:24:03;99931.50;;;8.34;69.68
54900;BME280;40801;41.924;25.562;2023-04-09T00:26:30;99935.00;;;8.34;69.44
54900;BME280;40801;41.924;25.562;2023-04-09T00:28:55;99932.03;;;8.31;69.66
54900;BME280;40801;41.924;25.562;2023-04-09T00:31:20;99930.50;;;8.20;70.15
54900;BME280;40801;41.924;25.562;2023-04-09T00:33:46;99931.06;;;8.12;70.29
54900;BME280;40801;41.924;25.562;2023-04-09T00:36:11;99941.78;;;8.17;69.67
54900;BME280;40801;41.924;25.562;2023-04-09T00:38:37;99933.47;;;8.08;70.37
54900;BME280;40801;41.924;25.562;2023-04-09T00:41:02;99925.97;;;8.05;70.68
54900;BME280;40801;41.924;25.562;2023-04-09T00:43:27;99922.50;;;7.99;70.35
54900;BME280;40801;41.924;25.562;2023-04-09T00:45:53;99932.19;;;7.95;71.17
54900;BME280;40801;41.924;25.562;2023-04-09T00:48:19;99928.44;;;7.91;71.04
54900;BME280;40801;41.924;25.562;2023-04-09T00:50:45;99936.50;;;7.91;70.77
54900;BME280;40801;41.924;25.562;2023-04-09T00:53:11;99937.56;;;7.90;70.95
54900;BME280;40801;41.924;25.562;2023-04-09T00:55:39;99927.69;;;7.81;71.24
54900;BME280;40801;41.924;25.562;2023-04-09T00:58:04;99934.66;;;7.82;71.11
54900;BME280;40801;41.924;25.562;2023-04-09T01:00:30;99934.38;;;7.73;71.90
54900;BME280;40801;41.924;25.562;2023-04-09T01:02:56;99940.03;;;7.71;72.16
54900;BME280;40801;41.924;25.562;2023-04-09T01:05:30;99927.97;;;7.64;72.25
54900;BME280;40801;41.924;25.562;2023-04-09T01:10:37;99942.47;;;7.58;72.50
54900;BME280;40801;41.924;25.562;2023-04-09T01:15:33;99944.34;;;7.47;75.39
54900;BME280;40801;41.924;25.562;2023-04-09T01:18:14;99938.19;;;7.46;73.76
54900;BME280;40801;41.924;25.562;2023-04-09T01:20:59;99940.31;;;7.50;73.51
54900;BME280;40801;41.924;25.562;2023-04-09T01:28:42;99953.50;;;7.36;74.02
54900;BME280;40801;41.924;25.562;2023-04-09T01:31:14;99938.22;;;7.36;73.14
54900;BME280;40801;41.924;25.562;2023-04-09T01:33:41;99952.97;;;7.39;73.63
54900;BME280;40801;41.924;25.562;2023-04-09T01:36:08;99955.66;;;7.34;73.73
54900;BME280;40801;41.924;25.562;2023-04-09T01:38:39;99957.25;;;7.35;73.47
54900;BME280;40801;41.924;25.562;2023-04-09T01:41:07;99954.03;;;7.33;73.57
54900;BME280;40801;41.924;25.562;2023-04-09T01:43:33;99957.81;;;7.32;73.54
54900;BME280;40801;41.924;25.562;2023-04-09T01:46:00;99955.66;;;7.29;73.27
54900;BME280;40801;41.924;25.562;2023-04-09T01:48:28;99952.72;;;7.30;74.36
54900;BME280;40801;41.924;25.562;2023-04-09T01:50:55;99947.59;;;7.34;73.33
54900;BME280;40801;41.924;25.562;2023-04-09T01:53:21;99948.16;;;7.31;73.62
54900;BME280;40801;41.924;25.562;2023-04-09T01:55:47;99949.47;;;7.33;73.28
54900;BME280;40801;41.924;25.562;2023-04-09T01:58:12;99949.75;;;7.32;73.61
54900;BME280;40801;41.924;25.562;2023-04-09T02:00:45;99949.22;;;7.30;73.91
54900;BME280;40801;41.924;25.562;2023-04-09T02:03:18;99948.69;;;7.28;74.23
54900;BME280;40801;41.924;25.562;2023-04-09T02:06:06;99949.72;;;7.22;74.36
54900;BME280;40801;41.924;25.562;2023-04-09T02:08:34;99948.13;;;7.21;74.31
54900;BME280;40801;41.924;25.562;2023-04-09T02:11:03;99948.13;;;7.15;74.33
54900;BME280;40801;41.924;25.562;2023-04-09T02:13:29;99949.47;;;7.18;73.71
54900;BME280;40801;41.924;25.562;2023-04-09T02:15:57;99951.88;;;7.04;73.09
54900;BME280;40801;41.924;25.562;2023-04-09T02:18:28;99956.16;;;6.90;73.77
54900;BME280;40801;41.924;25.562;2023-04-09T02:20:58;99955.06;;;6.81;73.36
54900;BME280;40801;41.924;25.562;2023-04-09T02:23:24;99960.66;;;6.59;74.60
54900;BME280;40801;41.924;25.562;2023-04-09T02:25:50;99950.72;;;6.55;73.82
54900;BME280;40801;41.924;25.562;2023-04-09T02:28:16;99962.22;;;6.50;73.58
54900;BME280;40801;41.924;25.562;2023-04-09T02:30:42;99956.06;;;6.49;73.71
54900;BME280;40801;41.924;25.562;2023-04-09T02:33:07;99958.75;;;6.44;73.53
54900;BME280;40801;41.924;25.562;2023-04-09T02:35:33;99954.19;;;6.40;72.91
54900;BME280;40801;41.924;25.562;2023-04-09T02:37:59;99959.72;;;6.23;73.10
54900;BME280;40801;41.924;25.562;2023-04-09T02:40:24;99960.94;;;6.00;73.91
54900;BME280;40801;41.924;25.562;2023-04-09T02:42:51;99955.34;;;6.02;73.27
54900;BME280;40801;41.924;25.562;2023-04-09T02:45:16;99964.38;;;5.90;73.71
54900;BME280;40801;41.924;25.562;2023-04-09T02:47:42;99958.97;;;5.85;73.89
54900;BME280;40801;41.924;25.562;2023-04-09T02:50:07;99955.22;;;5.81;73.84
54900;BME280;40801;41.924;25.562;2023-04-09T02:52:33;99956.56;;;5.84;73.98
54900;BME280;40801;41.924;25.562;2023-04-09T02:54:58;99970.75;;;5.84;74.52
54900;BME280;40801;41.924;25.562;2023-04-09T02:57:23;99970.72;;;5.79;75.22
54900;BME280;40801;41.924;25.562;2023-04-09T02:59:49;99971.00;;;5.83;75.08
54900;BME280;40801;41.924;25.562;2023-04-09T03:02:14;99974.78;;;5.87;75.07
54900;BME280;40801;41.924;25.562;2023-04-09T03:04:40;99986.91;;;5.95;75.56
54900;BME280;40801;41.924;25.562;2023-04-09T03:07:05;99973.50;;;5.95;75.54
54900;BME280;40801;41.924;25.562;2023-04-09T03:09:30;99970.13;;;6.09;75.26
54900;BME280;40801;41.924;25.562;2023-04-09T03:11:56;99966.41;;;6.15;75.63
54900;BME280;40801;41.924;25.562;2023-04-09T03:14:25;99976.34;;;6.25;75.29
54900;BME280;40801;41.924;25.562;2023-04-09T03:16:50;99971.28;;;6.34;75.30
54900;BME280;40801;41.924;25.562;2023-04-09T03:19:15;99975.88;;;6.43;75.48
54900;BME280;40801;41.924;25.562;2023-04-09T03:21:41;99975.38;;;6.62;74.75
54900;BME280;40801;41.924;25.562;2023-04-09T03:24:07;99974.84;;;6.60;75.29
54900;BME280;40801;41.924;25.562;2023-04-09T03:26:32;99974.91;;;6.75;74.85
54900;BME280;40801;41.924;25.562;2023-04-09T03:29:04;99985.34;;;6.76;76.08
54900;BME280;40801;41.924;25.562;2023-04-09T03:31:31;99984.03;;;6.79;76.14
54900;BME280;40801;41.924;25.562;2023-04-09T03:33:56;99990.19;;;6.79;76.78
54900;BME280;40801;41.924;25.562;2023-04-09T03:36:22;99995.53;;;6.74;77.88
54900;BME280;40801;41.924;25.562;2023-04-09T03:38:47;99993.38;;;6.71;78.08
54900;BME280;40801;41.924;25.562;2023-04-09T03:41:13;99993.69;;;6.90;75.65
54900;BME280;40801;41.924;25.562;2023-04-09T03:43:38;99989.97;;;7.01;75.08
54900;BME280;40801;41.924;25.562;2023-04-09T03:46:16;99994.53;;;7.01;76.97
54900;BME280;40801;41.924;25.562;2023-04-09T03:48:42;99998.56;;;7.03;76.57
54900;BME280;40801;41.924;25.562;2023-04-09T03:51:12;99993.72;;;7.05;76.51
54900;BME280;40801;41.924;25.562;2023-04-09T03:53:39;99992.38;;;6.98;77.22
54900;BME280;40801;41.924;25.562;2023-04-09T03:56:04;99992.38;;;7.03;76.85
54900;BME280;40801;41.924;25.562;2023-04-09T03:58:30;100000.16;;;7.09;76.43
54900;BME280;40801;41.924;25.562;2023-04-09T04:00:55;100002.56;;;7.06;77.52
54900;BME280;40801;41.924;25.562;2023-04-09T04:03:21;99992.13;;;7.04;77.58
54900;BME280;40801;41.924;25.562;2023-04-09T04:05:46;99996.13;;;7.17;76.66
54900;BME280;40801;41.924;25.562;2023-04-09T04:08:11;99999.91;;;7.16;77.29
54900;BME280;40801;41.924;25.562;2023-04-09T04:10:37;99990.78;;;7.17;77.10
54900;BME280;40801;41.924;25.562;2023-04-09T04:13:02;99987.59;;;7.25;76.60
54900;BME280;40801;41.924;25.562;2023-04-09T04:15:28;99991.03;;;7.15;76.92
54900;BME280;40801;41.924;25.562;2023-04-09T04:17:54;100003.13;;;7.13;77.80
54900;BME280;40801;41.924;25.562;2023-04-09T04:20:19;100002.56;;;7.21;77.23
54900;BME280;40801;41.924;25.562;2023-04-09T04:22:44;99998.28;;;7.15;78.17
54900;BME280;40801;41.924;25.562;2023-04-09T04:25:10;100000.47;;;7.28;77.36
54900;BME280;40801;41.924;25.562;2023-04-09T04:27:35;100006.88;;;7.12;77.99
54900;BME280;40801;41.924;25.562;2023-04-09T04:30:01;99997.75;;;7.08;78.98
54900;BME280;40801;41.924;25.562;2023-04-09T04:32:27;100002.03;;;7.14;78.54
54900;BME280;40801;41.924;25.562;2023-04-09T04:34:52;99991.56;;;7.18;78.87
54900;BME280;40801;41.924;25.562;2023-04-09T04:37:18;99985.44;;;7.37;77.18
54900;BME280;40801;41.924;25.562;2023-04-09T04:39:44;99989.97;;;7.42;77.50
54900;BME280;40801;41.924;25.562;2023-04-09T04:42:09;99995.88;;;7.59;77.14
54900;BME280;40801;41.924;25.562;2023-04-09T04:44:34;100003.94;;;7.69;77.65
54900;BME280;40801;41.924;25.562;2023-04-09T04:47:00;100003.91;;;7.74;77.10
54900;BME280;40801;41.924;25.562;2023-04-09T04:49:25;99998.81;;;7.83;76.09
54900;BME280;40801;41.924;25.562;2023-04-09T04:51:50;100006.59;;;7.90;76.18
54900;BME280;40801;41.924;25.562;2023-04-09T04:54:16;100013.84;;;7.69;77.93
54900;BME280;40801;41.924;25.562;2023-04-09T04:56:41;100013.56;;;7.75;76.33
54900;BME280;40801;41.924;25.562;2023-04-09T04:59:07;100011.97;;;7.74;76.70
54900;BME280;40801;41.924;25.562;2023-04-09T05:01:32;100012.50;;;7.92;75.38
54900;BME280;40801;41.924;25.562;2023-04-09T05:03:57;100008.22;;;7.81;75.94
54900;BME280;40801;41.924;25.562;2023-04-09T05:06:23;100013.59;;;7.70;76.72
54900;BME280;40801;41.924;25.562;2023-04-09T05:08:48;100022.47;;;7.81;76.73
54900;BME280;40801;41.924;25.562;2023-04-09T05:11:13;100017.84;;;8.02;75.10
54900;BME280;40801;41.924;25.562;2023-04-09T05:13:41;100015.94;;;8.02;74.57
54900;BME280;40801;41.924;25.562;2023-04-09T05:16:06;100022.41;;;8.01;75.29
54900;BME280;40801;41.924;25.562;2023-04-09T05:18:32;100018.91;;;8.06;75.03
54900;BME280;40801;41.924;25.562;2023-04-09T05:20:57;100017.31;;;8.10;75.21
54900;BME280;40801;41.924;25.562;2023-04-09T05:23:22;100018.63;;;8.18;74.76
54900;BME280;40801;41.924;25.562;2023-04-09T05:25:48;100023.66;;;8.45;73.46
54900;BME280;40801;41.924;25.562;2023-04-09T05:28:14;100032.53;;;8.45;73.40
54900;BME280;40801;41.924;25.562;2023-04-09T05:30:44;100025.28;;;8.46;74.19
54900;BME280;40801;41.924;25.562;2023-04-09T05:33:13;100027.41;;;8.49;73.89
54900;BME280;40801;41.924;25.562;2023-04-09T05:35:39;100028.22;;;8.49;74.28
54900;BME280;40801;41.924;25.562;2023-04-09T05:38:05;100029.69;;;8.81;73.24
54900;BME280;40801;41.924;25.562;2023-04-09T05:40:30;100028.19;;;9.09;72.66
54900;BME280;40801;41.924;25.562;2023-04-09T05:42:56;100028.72;;;9.11;72.12
54900;BME280;40801;41.924;25.562;2023-04-09T05:45:21;100023.56;;;9.14;71.48
54900;BME280;40801;41.924;25.562;2023-04-09T05:47:47;100023.47;;;9.29;71.13
54900;BME280;40801;41.924;25.562;2023-04-09T05:50:12;100016.72;;;9.32;70.94
54900;BME280;40801;41.924;25.562;2023-04-09T05:52:37;100030.53;;;9.20;71.30
54900;BME280;40801;41.924;25.562;2023-04-09T05:55:03;100019.84;;;9.44;70.30
54900;BME280;40801;41.924;25.562;2023-04-09T05:57:30;100027.59;;;9.51;69.87
54900;BME280;40801;41.924;25.562;2023-04-09T05:59:56;100033.91;;;9.70;69.31
54900;BME280;40801;41.924;25.562;2023-04-09T06:02:22;100033.88;;;9.75;69.59
54900;BME280;40801;41.924;25.562;2023-04-09T06:04:48;100031.44;;;9.74;68.87
54900;BME280;40801;41.924;25.562;2023-04-09T06:07:14;100026.88;;;9.74;69.25
54900;BME280;40801;41.924;25.562;2023-04-09T06:09:39;100016.78;;;9.90;68.93
54900;BME280;40801;41.924;25.562;2023-04-09T06:12:05;100029.84;;;9.73;68.77
54900;BME280;40801;41.924;25.562;2023-04-09T06:14:31;100030.56;;;9.54;68.47
54900;BME280;40801;41.924;25.562;2023-04-09T06:16:58;100040.38;;;9.69;68.34
54900;BME280;40801;41.924;25.562;2023-04-09T06:19:23;100039.31;;;9.70;68.34
54900;BME280;40801;41.924;25.562;2023-04-09T06:21:49;100042.03;;;9.65;68.38
54900;BME280;40801;41.924;25.562;2023-04-09T06:24:15;100032.75;;;9.47;68.48
54900;BME280;40801;41.924;25.562;2023-04-09T06:26:40;100043.13;;;9.30;69.30
54900;BME280;40801;41.924;25.562;2023-04-09T06:29:05;100049.22;;;9.41;69.18
54900;BME280;40801;41.924;25.562;2023-04-09T06:31:31;100053.91;;;9.64;68.58
54900;BME280;40801;41.924;25.562;2023-04-09T06:33:57;100046.00;;;9.39;68.65
54900;BME280;40801;41.924;25.562;2023-04-09T06:36:23;100054.13;;;9.34;68.98
54900;BME280;40801;41.924;25.562;2023-04-09T06:38:48;100057.13;;;9.27;69.43
54900;BME280;40801;41.924;25.562;2023-04-09T06:41:14;100057.88;;;9.38;68.75
54900;BME280;40801;41.924;25.562;2023-04-09T06:43:39;100046.63;;;9.30;70.04
54900;BME280;40801;41.924;25.562;2023-04-09T06:46:05;100052.09;;;9.54;69.01
54900;BME280;40801;41.924;25.562;2023-04-09T06:48:31;100048.47;;;9.69;68.79
54900;BME280;40801;41.924;25.562;2023-04-09T06:50:56;100054.59;;;9.75;68.42
54900;BME280;40801;41.924;25.562;2023-04-09T06:53:21;100056.78;;;9.73;68.50
54900;BME280;40801;41.924;25.562;2023-04-09T06:55:47;100047.78;;;9.53;68.92
54900;BME280;40801;41.924;25.562;2023-04-09T06:58:12;100038.03;;;9.62;68.59
54900;BME280;40801;41.924;25.562;2023-04-09T07:00:38;100039.06;;;9.67;67.98
54900;BME280;40801;41.924;25.562;2023-04-09T07:03:03;100033.06;;;10.04;67.24
54900;BME280;40801;41.924;25.562;2023-04-09T07:05:29;100036.59;;;10.28;66.59
54900;BME280;40801;41.924;25.562;2023-04-09T07:07:55;100045.09;;;10.11;66.56
54900;BME280;40801;41.924;25.562;2023-04-09T07:10:20;100042.00;;;10.28;66.10
54900;BME280;40801;41.924;25.562;2023-04-09T07:12:46;100037.47;;;10.47;65.77
54900;BME280;40801;41.924;25.562;2023-04-09T07:15:12;100037.13;;;10.54;65.59
54900;BME280;40801;41.924;25.562;2023-04-09T07:17:37;100034.78;;;10.47;65.60
54900;BME280;40801;41.924;25.562;2023-04-09T07:20:03;100040.41;;;10.27;66.08
54900;BME280;40801;41.924;25.562;2023-04-09T07:22:29;100042.06;;;10.47;65.44
54900;BME280;40801;41.924;25.562;2023-04-09T07:24:55;100050.63;;;10.54;65.65
54900;BME280;40801;41.924;25.562;2023-04-09T07:27:25;100054.41;;;10.53;64.98
54900;BME280;40801;41.924;25.562;2023-04-09T07:29:55;100048.94;;;10.58;65.12
54900;BME280;40801;41.924;25.562;2023-04-09T07:32:22;100044.41;;;10.77;64.66
54900;BME280;40801;41.924;25.562;2023-04-09T07:34:50;100041.22;;;11.13;63.93
54900;BME280;40801;41.924;25.562;2023-04-09T07:37:15;100026.16;;;11.26;63.43
54900;BME280;40801;41.924;25.562;2023-04-09T07:39:41;100042.56;;;11.48;62.85
54900;BME280;40801;41.924;25.562;2023-04-09T07:42:06;100038.19;;;11.85;62.03
54900;BME280;40801;41.924;25.562;2023-04-09T07:44:33;100044.25;;;12.09;61.49
54900;BME280;40801;41.924;25.562;2023-04-09T07:46:59;100039.19;;;12.35;60.01
54900;BME280;40801;41.924;25.562;2023-04-09T07:49:25;100042.59;;;12.40;59.54
54900;BME280;40801;41.924;25.562;2023-04-09T07:51:50;100044.44;;;12.95;59.71
54900;BME280;40801;41.924;25.562;2023-04-09T07:54:15;100040.59;;;13.23;58.50
54900;BME280;40801;41.924;25.562;2023-04-09T07:56:41;100041.53;;;13.41;56.99
54900;BME280;40801;41.924;25.562;2023-04-09T07:59:06;100047.94;;;13.68;56.85
54900;BME280;40801;41.924;25.562;2023-04-09T08:01:32;100045.72;;;13.70;56.17
54900;BME280;40801;41.924;25.562;2023-04-09T08:03:57;100050.44;;;13.86;55.96
54900;BME280;40801;41.924;25.562;2023-04-09T08:06:22;100051.75;;;13.89;55.45
54900;BME280;40801;41.924;25.562;2023-04-09T08:08:48;100054.28;;;13.85;54.83
54900;BME280;40801;41.924;25.562;2023-04-09T08:11:13;100060.28;;;14.05;54.67
54900;BME280;40801;41.924;25.562;2023-04-09T08:13:39;100059.59;;;14.21;54.27
54900;BME280;40801;41.924;25.562;2023-04-09T08:16:04;100058.50;;;14.71;54.02
54900;BME280;40801;41.924;25.562;2023-04-09T08:18:30;100052.25;;;15.62;53.00
54900;BME280;40801;41.924;25.562;2023-04-09T08:20:56;100046.81;;;16.17;51.08
54900;BME280;40801;41.924;25.562;2023-04-09T08:23:21;100047.94;;;16.16;50.13
54900;BME280;40801;41.924;25.562;2023-04-09T08:25:46;100050.38;;;16.56;48.47
54900;BME280;40801;41.924;25.562;2023-04-09T08:28:12;100048.63;;;16.51;48.46
54900;BME280;40801;41.924;25.562;2023-04-09T08:30:37;100045.16;;;17.01;47.37
54900;BME280;40801;41.924;25.562;2023-04-09T08:33:03;100042.56;;;17.67;45.00
54900;BME280;40801;41.924;25.562;2023-04-09T08:35:32;100048.50;;;18.39;43.95
54900;BME280;40801;41.924;25.562;2023-04-09T08:37:58;100044.63;;;18.40;43.91
54900;BME280;40801;41.924;25.562;2023-04-09T08:40:23;100042.59;;;18.37;43.43
54900;BME280;40801;41.924;25.562;2023-04-09T08:42:53;100033.28;;;18.74;41.93
54900;BME280;40801;41.924;25.562;2023-04-09T08:45:21;100035.09;;;18.82;41.42
54900;BME280;40801;41.924;25.562;2023-04-09T08:47:48;100035.66;;;18.88;41.79
54900;BME280;40801;41.924;25.562;2023-04-09T08:50:14;100023.00;;;18.96;41.77
54900;BME280;40801;41.924;25.562;2023-04-09T08:52:40;100025.19;;;19.70;40.92
54900;BME280;40801;41.924;25.562;2023-04-09T08:55:06;100021.34;;;19.59;40.22
54900;BME280;40801;41.924;25.562;2023-04-09T08:57:39;100024.94;;;20.23;38.05
54900;BME280;40801;41.924;25.562;2023-04-09T09:00:05;100024.91;;;19.75;39.12
54900;BME280;40801;41.924;25.562;2023-04-09T09:02:32;100013.13;;;20.50;38.33
54900;BME280;40801;41.924;25.562;2023-04-09T09:04:57;100018.00;;;20.92;36.93
54900;BME280;40801;41.924;25.562;2023-04-09T09:07:29;100009.31;;;20.23;37.22
54900;BME280;40801;41.924;25.562;2023-04-09T09:09:57;100000.41;;;20.58;37.93
54900;BME280;40801;41.924;25.562;2023-04-09T09:15:23;100006.16;;;20.88;37.27
54900;BME280;40801;41.924;25.562;2023-04-09T09:17:56;100011.25;;;20.70;36.71
54900;BME280;40801;41.924;25.562;2023-04-09T09:20:23;100000.13;;;20.31;38.33
54900;BME280;40801;41.924;25.562;2023-04-09T09:22:51;100003.25;;;20.81;37.41
54900;BME280;40801;41.924;25.562;2023-04-09T09:25:16;100002.16;;;21.20;36.92
54900;BME280;40801;41.924;25.562;2023-04-09T09:27:42;99994.22;;;21.15;37.39
54900;BME280;40801;41.924;25.562;2023-04-09T09:30:08;100011.28;;;20.89;36.65
54900;BME280;40801;41.924;25.562;2023-04-09T09:32:35;100008.44;;;21.59;35.38
54900;BME280;40801;41.924;25.562;2023-04-09T09:35:04;100007.63;;;21.20;34.29
54900;BME280;40801;41.924;25.562;2023-04-09T09:37:30;100008.97;;;21.26;35.61
54900;BME280;40801;41.924;25.562;2023-04-09T09:39:57;100002.31;;;21.47;35.20
54900;BME280;40801;41.924;25.562;2023-04-09T09:42:23;99996.75;;;21.85;34.61
54900;BME280;40801;41.924;25.562;2023-04-09T09:44:49;100002.28;;;21.66;34.78
54900;BME280;40801;41.924;25.562;2023-04-09T09:47:16;99985.91;;;21.70;34.25
54900;BME280;40801;41.924;25.562;2023-04-09T09:49:42;99993.97;;;21.62;34.63
54900;BME280;40801;41.924;25.562;2023-04-09T09:52:09;99980.09;;;21.75;34.47
54900;BME280;40801;41.924;25.562;2023-04-09T09:54:42;99975.66;;;22.35;32.60
54900;BME280;40801;41.924;25.562;2023-04-09T09:57:12;99983.16;;;22.38;32.61
54900;BME280;40801;41.924;25.562;2023-04-09T09:59:43;99973.22;;;22.56;32.93
54900;BME280;40801;41.924;25.562;2023-04-09T10:02:17;99967.06;;;22.67;31.20
54900;BME280;40801;41.924;25.562;2023-04-09T10:04:43;99960.47;;;23.35;31.71
54900;BME280;40801;41.924;25.562;2023-04-09T10:07:09;99960.22;;;23.81;31.22
54900;BME280;40801;41.924;25.562;2023-04-09T10:09:40;99957.91;;;23.90;31.12
54900;BME280;40801;41.924;25.562;2023-04-09T10:12:08;99960.03;;;24.03;30.46
54900;BME280;40801;41.924;25.562;2023-04-09T10:14:35;99955.03;;;24.23;30.40
54900;BME280;40801;41.924;25.562;2023-04-09T10:17:01;99955.06;;;24.27;30.40
54900;BME280;40801;41.924;25.562;2023-04-09T10:19:29;99949.59;;;23.12;31.24
54900;BME280;40801;41.924;25.562;2023-04-09T10:22:00;99946.91;;;23.90;29.48
54900;BME280;40801;41.924;25.562;2023-04-09T10:24:29;99952.63;;;24.15;29.27
54900;BME280;40801;41.924;25.562;2023-04-09T10:27:08;99948.91;;;24.40;28.24
54900;BME280;40801;41.924;25.562;2023-04-09T10:29:41;99946.44;;;24.94;27.96
54900;BME280;40801;41.924;25.562;2023-04-09T10:32:08;99955.56;;;25.05;28.79
54900;BME280;40801;41.924;25.562;2023-04-09T10:34:42;99938.66;;;24.41;27.03
54900;BME280;40801;41.924;25.562;2023-04-09T10:37:29;99938.78;;;24.62;27.90
54900;BME280;40801;41.924;25.562;2023-04-09T10:39:55;99931.59;;;24.44;28.95
54900;BME280;40801;41.924;25.562;2023-04-09T10:42:42;99926.47;;;25.22;28.33
54900;BME280;40801;41.924;25.562;2023-04-09T10:45:13;99917.41;;;25.39;27.45
54900;BME280;40801;41.924;25.562;2023-04-09T10:47:40;99916.72;;;26.03;26.92
54900;BME280;40801;41.924;25.562;2023-04-09T10:50:14;99911.56;;;25.73;25.87
54900;BME280;40801;41.924;25.562;2023-04-09T10:52:40;99900.13;;;25.67;26.82
54900;BME280;40801;41.924;25.562;2023-04-09T10:55:08;99904.44;;;26.43;26.20
54900;BME280;40801;41.924;25.562;2023-04-09T10:57:33;99902.75;;;26.74;25.89
54900;BME280;40801;41.924;25.562;2023-04-09T10:59:59;99891.53;;;27.09;25.64
54900;BME280;40801;41.924;25.562;2023-04-09T11:02:47;99882.00;;;27.21;23.40
54900;BME280;40801;41.924;25.562;2023-04-09T11:05:30;99894.28;;;27.16;24.13
54900;BME280;40801;41.924;25.562;2023-04-09T11:10:33;99873.59;;;27.35;23.33
54900;BME280;40801;41.924;25.562;2023-04-09T11:12:59;99877.28;;;27.18;23.96
54900;BME280;40801;41.924;25.562;2023-04-09T11:15:25;99863.94;;;26.88;24.53
54900;BME280;40801;41.924;25.562;2023-04-09T11:17:51;99873.84;;;26.82;24.54
54900;BME280;40801;41.924;25.562;2023-04-09T11:20:21;99875.78;;;26.89;24.23
54900;BME280;40801;41.924;25.562;2023-04-09T11:22:52;99861.03;;;27.16;24.31
54900;BME280;40801;41.924;25.562;2023-04-09T11:25:25;99863.91;;;27.02;24.87
54900;BME280;40801;41.924;25.562;2023-04-09T11:27:52;99858.88;;;27.45;24.25
54900;BME280;40801;41.924;25.562;2023-04-09T11:30:18;99851.19;;;27.12;23.80
54900;BME280;40801;41.924;25.562;2023-04-09T11:32:44;99849.59;;;27.14;23.94
54900;BME280;40801;41.924;25.562;2023-04-09T11:35:11;99858.34;;;27.06;24.66
54900;BME280;40801;41.924;25.562;2023-04-09T11:37:40;99856.19;;;26.54;25.32
54900;BME280;40801;41.924;25.562;2023-04-09T11:40:07;99841.41;;;26.93;24.44
54900;BME280;40801;41.924;25.562;2023-04-09T11:42:33;99839.97;;;26.64;24.01
54900;BME280;40801;41.924;25.562;2023-04-09T11:44:59;99831.81;;;25.92;24.91
54900;BME280;40801;41.924;25.562;2023-04-09T11:47:25;99830.19;;;26.23;25.13
54900;BME280;40801;41.924;25.562;2023-04-09T11:49:51;99829.16;;;26.91;24.28
54900;BME280;40801;41.924;25.562;2023-04-09T11:52:17;99832.53;;;24.97;26.06
54900;BME280;40801;41.924;25.562;2023-04-09T11:54:47;99823.28;;;24.43;26.59
54900;BME280;40801;41.924;25.562;2023-04-09T11:57:13;99823.06;;;24.07;26.78
54900;BME280;40801;41.924;25.562;2023-04-09T11:59:39;99828.63;;;23.60;27.38
54900;BME280;40801;41.924;25.562;2023-04-09T12:02:05;99828.09;;;23.06;27.88
54900;BME280;40801;41.924;25.562;2023-04-09T12:04:31;99821.13;;;22.19;28.94
54900;BME280;40801;41.924;25.562;2023-04-09T12:06:57;99817.47;;;21.58;29.93
54900;BME280;40801;41.924;25.562;2023-04-09T12:09:25;99821.16;;;22.52;29.57
54900;BME280;40801;41.924;25.562;2023-04-09T12:11:51;99813.81;;;23.78;28.51
54900;BME280;40801;41.924;25.562;2023-04-09T12:14:18;99808.47;;;24.97;27.37
54900;BME280;40801;41.924;25.562;2023-04-09T12:16:49;99792.00;;;25.69;25.37
54900;BME280;40801;41.924;25.562;2023-04-09T12:19:15;99788.56;;;26.59;24.73
54900;BME280;40801;41.924;25.562;2023-04-09T12:21:48;99780.75;;;27.20;22.83
54900;BME280;40801;41.924;25.562;2023-04-09T12:24:15;99779.50;;;27.25;24.01
54900;BME280;40801;41.924;25.562;2023-04-09T12:26:44;99790.75;;;26.96;23.97
54900;BME280;40801;41.924;25.562;2023-04-09T12:29:13;99778.75;;;27.17;23.96
54900;BME280;40801;41.924;25.562;2023-04-09T12:31:38;99782.13;;;25.71;24.75
54900;BME280;40801;41.924;25.562;2023-04-09T12:34:04;99774.50;;;24.61;25.91
54900;BME280;40801;41.924;25.562;2023-04-09T12:36:29;99780.91;;;24.00;26.86
54900;BME280;40801;41.924;25.562;2023-04-09T12:38:55;99778.69;;;23.65;27.03
54900;BME280;40801;41.924;25.562;2023-04-09T12:41:20;99762.22;;;23.21;27.49
54900;BME280;40801;41.924;25.562;2023-04-09T12:43:46;99769.25;;;22.44;28.52
54900;BME280;40801;41.924;25.562;2023-04-09T12:46:12;99767.97;;;22.34;28.64
54900;BME280;40801;41.924;25.562;2023-04-09T12:48:38;99760.72;;;21.92;28.82
54900;BME280;40801;41.924;25.562;2023-04-09T12:51:03;99764.38;;;22.30;29.16
54900;BME280;40801;41.924;25.562;2023-04-09T12:53:30;99754.59;;;23.03;28.49
54900;BME280;40801;41.924;25.562;2023-04-09T12:55:55;99759.19;;;23.88;27.87
54900;BME280;40801;41.924;25.562;2023-04-09T12:58:21;99755.44;;;24.28;26.77
54900;BME280;40801;41.924;25.562;2023-04-09T13:00:46;99744.50;;;24.53;26.14
54900;BME280;40801;41.924;25.562;2023-04-09T13:03:12;99741.72;;;24.38;26.33
54900;BME280;40801;41.924;25.562;2023-04-09T13:05:40;99739.53;;;23.93;26.83